Westchester, IL

8:18 PM CDT on April 01, 2015 (GMT -0500)
Mr. Hammes's Weather | | Change Station
CLOSE
Current Station
Personal Weather Station
Location: Westchester, IL
Elevation: 641 ft
Nearby Weather Stations

Elev 641 ft 41.85 °N, 87.87 °W | Updated 17 seconds ago

Partly Cloudy
Partly Cloudy
65.1 °F
Feels Like 65.1 °F
N
8.1
Wind Variable Wind from SSW
Gusts 8.1 mph

Today
High -- | Low -- °F
--% Chance of Precip.
Yesterday
High -- | Low -- °F
Precip. -- in
6:34 AM 7:16 PM
Waxing Gibbous, 95% visible
Pressure 29.89 in
Visibility 10.0 miles
Clouds Scattered Clouds 25000 ft
Dew Point 26 °F
Humidity 23%
Rainfall 0.00 in
Snow Depth Not available.
UV 0 out of 12
Pollen 7.30 out of 12
Air Quality Not available.
Flu Activity Not available.
METAR KMDW 020053Z 18012G19KT 10SM SCT250 20/03 A2990 RMK AO2 SLP122 T02000028

More Conditions Fewer Conditions

Pressure 29.89 in
Visibility 10.0 miles
Clouds Scattered Clouds 25000 ft
Dew Point 26 °F
Humidity 23%
Rainfall 0.00 in
Snow Depth Not available.
UV 0 out of 12
Pollen 7.30 out of 12
Air Quality Not available.
Flu Activity Not available.
METAR KMDW 020053Z 18012G19KT 10SM SCT250 20/03 A2990 RMK AO2 SLP122 T02000028

More Conditions Fewer Conditions

10-Day Weather Forecast

Almanac

Astronomy

Apr. 01, 2015 Rise Set
Actual Time
Civil Twilight
Nautical Twilight
Astronomical Twilight
Moon
Length of Visible Light
Length of Day
Tomorrow will be .
, % of the Moon is Illuminated

Today's Extremes

State Highs State Lows

Community

WunderPhotos

Upload Photos

1,810,142 photos uploaded!

WunderBlogs® & News

Nearby

Air Quality

  Air Quality AQ Index Pollutant
Not available.

Snow Depth

Station Depth Elevation

Earthquake Activity

City Distance Mag. Time & Date
Minimum magnitude displayed is 2.5.

Coastal Water Temperatures

Place Temperature

Stations

Nearby Weather Stations

Station Location Temp. Windchill Dew Point Humidity Wind Precip. Elev Updated Type